createdAt,value
2023-04-20T00:01:34.817Z,2.63
2023-04-20T00:04:06.183Z,2.83
2023-04-20T00:06:37.519Z,5.33
2023-04-20T00:09:08.795Z,2.80
2023-04-20T00:11:40.254Z,5.43
2023-04-20T00:14:11.532Z,4.57
2023-04-20T00:16:42.947Z,5.33
2023-04-20T00:19:14.249Z,4.10
2023-04-20T00:21:46.296Z,5.30
2023-04-20T00:24:17.669Z,3.67
2023-04-20T00:26:48.924Z,3.53
2023-04-20T00:29:20.249Z,4.50
2023-04-20T00:31:51.538Z,5.70
2023-04-20T00:34:22.952Z,8.13
2023-04-20T00:36:54.209Z,5.20
2023-04-20T00:39:25.667Z,2.10
2023-04-20T00:42:05.073Z,4.90
2023-04-20T00:44:36.360Z,4.50
2023-04-20T00:47:07.712Z,3.37
2023-04-20T00:49:39.392Z,7.63
2023-04-20T00:52:10.826Z,3.77
2023-04-20T00:54:42.497Z,3.93
2023-04-20T00:57:14.338Z,6.23
2023-04-20T00:59:46.372Z,3.43
2023-04-20T01:02:20.618Z,3.70
2023-04-20T01:04:51.991Z,5.47
2023-04-20T01:07:23.267Z,4.57
2023-04-20T01:09:54.522Z,7.23
2023-04-20T01:12:26.104Z,4.43
2023-04-20T01:14:57.489Z,4.63
2023-04-20T01:17:28.848Z,3.03
2023-04-20T01:20:00.697Z,6.83
2023-04-20T01:22:32.000Z,3.73
2023-04-20T01:25:03.460Z,2.10
2023-04-20T01:27:34.719Z,2.60
2023-04-20T01:30:06.728Z,4.93
2023-04-20T01:32:39.048Z,7.07
2023-04-20T01:35:11.092Z,6.87
2023-04-20T01:37:42.487Z,4.37
2023-04-20T01:40:14.757Z,5.90
2023-04-20T01:42:46.053Z,8.80
2023-04-20T01:45:17.365Z,6.40
2023-04-20T01:47:48.688Z,5.37
2023-04-20T01:50:20.122Z,5.77
2023-04-20T01:52:51.413Z,5.77
2023-04-20T01:55:22.674Z,3.90
2023-04-20T01:57:53.979Z,6.03
2023-04-20T02:00:25.634Z,7.10
2023-04-20T02:02:57.412Z,3.27
2023-04-20T02:05:28.793Z,5.20
2023-04-20T02:08:00.202Z,6.13
2023-04-20T02:10:31.537Z,6.67
2023-04-20T02:13:03.171Z,5.03
2023-04-20T02:15:34.470Z,4.57
2023-04-20T02:18:05.859Z,6.63
2023-04-20T02:20:37.339Z,4.23
2023-04-20T02:23:09.048Z,8.47
2023-04-20T02:25:40.378Z,4.90
2023-04-20T02:28:11.669Z,5.73
2023-04-20T02:30:43.345Z,3.50
2023-04-20T02:33:14.632Z,6.83
2023-04-20T02:35:46.126Z,5.17
2023-04-20T02:38:17.398Z,5.70
2023-04-20T02:40:48.658Z,4.63
2023-04-20T02:43:20.436Z,5.90
2023-04-20T02:45:51.728Z,6.37
2023-04-20T02:48:23.010Z,8.73
2023-04-20T02:50:57.284Z,5.30
2023-04-20T02:53:28.596Z,7.70
2023-04-20T02:56:00.140Z,9.30
2023-04-20T02:58:31.417Z,7.50
2023-04-20T03:01:04.014Z,5.80
2023-04-20T03:03:35.485Z,6.57
2023-04-20T03:06:07.164Z,5.43
2023-04-20T03:08:38.426Z,7.03
2023-04-20T03:11:09.729Z,7.37
2023-04-20T03:13:41.624Z,6.17
2023-04-20T03:16:12.938Z,10.43
2023-04-20T03:18:44.294Z,9.03
2023-04-20T03:21:16.339Z,4.83
2023-04-20T03:23:47.739Z,5.73
2023-04-20T03:26:20.345Z,3.80
2023-04-20T03:28:51.777Z,7.97
2023-04-20T03:31:23.306Z,4.47
2023-04-20T03:33:54.626Z,5.03
2023-04-20T03:36:26.228Z,8.90
2023-04-20T03:38:57.555Z,7.23
2023-04-20T03:41:30.513Z,3.97
2023-04-20T03:44:01.780Z,3.27
2023-04-20T03:46:33.731Z,6.17
2023-04-20T03:49:04.984Z,5.33
2023-04-20T03:51:36.249Z,6.47
2023-04-20T03:54:07.570Z,6.97
2023-04-20T03:56:38.828Z,9.03
2023-04-20T03:59:10.123Z,6.63
2023-04-20T04:01:42.200Z,8.47
2023-04-20T04:04:13.885Z,5.70
2023-04-20T04:06:45.488Z,7.03
2023-04-20T04:09:17.004Z,11.23
2023-04-20T04:11:48.454Z,6.30
2023-04-20T04:14:19.795Z,5.30
2023-04-20T04:16:51.178Z,7.73
2023-04-20T04:19:22.577Z,6.00
2023-04-20T04:21:53.855Z,8.27
2023-04-20T04:24:26.678Z,8.97
2023-04-20T04:26:58.449Z,9.30
2023-04-20T04:29:29.723Z,9.03
2023-04-20T04:32:04.958Z,7.37
2023-04-20T04:34:36.297Z,7.83
2023-04-20T04:37:08.087Z,9.13
2023-04-20T04:39:39.613Z,5.47
2023-04-20T04:42:11.006Z,8.47
2023-04-20T04:44:42.677Z,5.90
2023-04-20T04:47:14.162Z,8.53
2023-04-20T04:49:45.618Z,7.20
2023-04-20T04:52:16.879Z,9.30
2023-04-20T04:54:49.371Z,13.33
2023-04-20T04:57:20.738Z,7.37
2023-04-20T04:59:52.457Z,4.87
2023-04-20T05:02:23.814Z,6.83
2023-04-20T05:04:56.147Z,8.90
2023-04-20T05:07:27.466Z,5.50
2023-04-20T05:09:58.745Z,8.07
2023-04-20T05:12:30.150Z,7.37
2023-04-20T05:15:01.522Z,9.13
2023-04-20T05:17:32.884Z,8.07
2023-04-20T05:20:06.632Z,11.77
2023-04-20T05:22:38.343Z,9.90
2023-04-20T05:25:13.789Z,10.17
2023-04-20T05:27:46.200Z,6.22
2023-04-20T05:30:21.552Z,12.53
2023-04-20T05:32:53.461Z,6.18
2023-04-20T05:35:24.890Z,9.20
2023-04-20T05:37:56.350Z,8.13
2023-04-20T05:40:28.012Z,11.50
2023-04-20T05:42:59.289Z,12.50
2023-04-20T05:45:30.689Z,9.30
2023-04-20T05:48:02.068Z,11.80
2023-04-20T05:50:33.463Z,10.30
2023-04-20T05:53:04.721Z,10.33
2023-04-20T05:55:36.019Z,11.50
2023-04-20T05:58:07.297Z,11.53
2023-04-20T06:00:38.579Z,12.10
2023-04-20T06:03:10.097Z,8.00
2023-04-20T06:05:41.738Z,6.43
2023-04-20T06:08:13.138Z,11.53
2023-04-20T06:10:44.783Z,13.30
2023-04-20T06:13:16.066Z,9.37
2023-04-20T06:15:47.501Z,8.43
2023-04-20T06:18:18.780Z,10.80
2023-04-20T06:20:50.201Z,9.20
2023-04-20T06:23:21.463Z,9.17
2023-04-20T06:25:52.779Z,14.93
2023-04-20T06:28:24.036Z,13.33
2023-04-20T06:30:55.576Z,7.27
2023-04-20T06:33:26.936Z,11.87
2023-04-20T06:35:58.289Z,8.20
2023-04-20T06:38:29.549Z,11.50
2023-04-20T06:41:03.764Z,13.97
2023-04-20T06:43:35.041Z,14.80
2023-04-20T06:46:06.311Z,7.47
2023-04-20T06:48:37.650Z,13.07
2023-04-20T06:51:08.985Z,10.90
2023-04-20T06:53:40.260Z,9.47
2023-04-20T06:56:12.115Z,14.27
2023-04-20T06:58:43.392Z,7.77
2023-04-20T07:01:14.830Z,14.40
2023-04-20T07:03:50.225Z,11.60
2023-04-20T07:06:21.644Z,17.33
2023-04-20T07:08:52.895Z,13.47
2023-04-20T07:11:24.609Z,10.67
2023-04-20T07:13:56.199Z,7.57
2023-04-20T07:16:27.517Z,11.20
2023-04-20T07:18:58.801Z,10.70
2023-04-20T07:21:31.454Z,9.03
2023-04-20T07:24:02.802Z,9.63
2023-04-20T07:26:34.119Z,11.67
2023-04-20T07:29:05.421Z,10.70
2023-04-20T07:31:36.767Z,13.43
2023-04-20T07:34:08.943Z,7.53
2023-04-20T07:36:40.246Z,9.43
2023-04-20T07:39:11.684Z,8.30
2023-04-20T07:41:43.719Z,6.73
2023-04-20T07:44:15.126Z,8.20
2023-04-20T07:46:46.409Z,7.47
2023-04-20T07:49:17.900Z,7.20
2023-04-20T07:51:49.349Z,8.67
2023-04-20T07:54:20.666Z,14.83
2023-04-20T07:56:52.217Z,9.93
2023-04-20T07:59:23.515Z,11.13
2023-04-20T08:02:02.162Z,9.10
2023-04-20T08:04:39.007Z,12.70
2023-04-20T08:07:11.158Z,6.40
2023-04-20T08:09:42.444Z,8.80
2023-04-20T08:12:13.696Z,11.63
2023-04-20T08:14:45.424Z,13.83
2023-04-20T08:17:16.670Z,8.70
2023-04-20T08:19:47.929Z,10.03
2023-04-20T08:22:20.789Z,9.40
2023-04-20T08:24:52.128Z,11.07
2023-04-20T08:27:23.555Z,8.03
2023-04-20T08:29:55.263Z,14.03
2023-04-20T08:32:27.012Z,8.57
2023-04-20T08:34:58.405Z,10.50
2023-04-20T08:37:32.052Z,16.67
2023-04-20T08:40:05.512Z,12.10
2023-04-20T08:42:36.811Z,8.47
2023-04-20T08:45:08.533Z,10.73
2023-04-20T08:47:40.543Z,12.40
2023-04-20T08:50:11.858Z,9.27
2023-04-20T08:52:43.132Z,13.37
2023-04-20T08:55:18.344Z,9.90
2023-04-20T08:57:50.145Z,10.93
2023-04-20T09:00:21.734Z,8.60
2023-04-20T09:02:55.394Z,11.00
2023-04-20T09:05:31.455Z,11.83
2023-04-20T09:08:05.063Z,8.63
2023-04-20T09:10:42.436Z,7.43
2023-04-20T09:13:23.241Z,9.70
2023-04-20T09:15:54.817Z,8.57
2023-04-20T09:18:26.124Z,16.83
2023-04-20T09:21:07.783Z,8.47
2023-04-20T09:23:40.397Z,10.87
2023-04-20T09:26:18.659Z,9.80
2023-04-20T09:28:50.042Z,13.20
2023-04-20T09:31:23.005Z,11.50
2023-04-20T09:34:01.807Z,10.83
2023-04-20T09:36:39.698Z,10.43
2023-04-20T09:39:16.287Z,10.00
2023-04-20T09:41:48.791Z,9.07
2023-04-20T09:44:20.379Z,12.33
2023-04-20T09:46:52.211Z,10.93
2023-04-20T09:49:24.006Z,10.57
2023-04-20T09:51:56.589Z,15.07
2023-04-20T09:54:28.845Z,14.47
2023-04-20T09:57:01.582Z,10.73
2023-04-20T09:59:33.502Z,14.30
2023-04-20T10:02:09.581Z,7.70
2023-04-20T10:04:57.846Z,9.88
2023-04-20T10:07:31.648Z,11.63
2023-04-20T10:10:08.552Z,11.00
2023-04-20T10:12:53.763Z,13.13
2023-04-20T10:15:36.718Z,14.73
2023-04-20T10:18:25.506Z,10.90
2023-04-20T10:21:10.760Z,13.50
2023-04-20T10:23:49.408Z,13.47
2023-04-20T10:26:20.921Z,14.17
2023-04-20T10:28:52.217Z,9.40
2023-04-20T10:31:25.079Z,11.83
2023-04-20T10:33:56.448Z,13.33
2023-04-20T10:36:31.242Z,9.63
2023-04-20T10:39:19.172Z,10.57
2023-04-20T10:41:58.281Z,11.60
2023-04-20T10:44:30.778Z,14.43
2023-04-20T10:47:02.467Z,12.53
2023-04-20T10:49:34.413Z,10.13
2023-04-20T10:52:05.681Z,9.70
2023-04-20T10:54:38.844Z,9.33
2023-04-20T10:57:16.336Z,7.23
2023-04-20T10:59:47.615Z,8.20
2023-04-20T11:02:19.063Z,8.53
2023-04-20T11:04:50.492Z,14.03
2023-04-20T11:07:22.014Z,9.17
2023-04-20T11:09:55.836Z,9.30
2023-04-20T11:12:27.119Z,5.97
2023-04-20T11:15:00.289Z,6.63
2023-04-20T11:17:36.775Z,9.37
2023-04-20T11:20:10.984Z,9.23
2023-04-20T11:22:43.482Z,10.83
2023-04-20T11:25:14.799Z,10.67
2023-04-20T11:27:46.604Z,7.03
2023-04-20T11:30:17.972Z,8.80
2023-04-20T11:32:54.781Z,8.97
2023-04-20T11:35:26.129Z,9.47
2023-04-20T11:37:57.562Z,8.50
2023-04-20T11:40:28.922Z,9.73
2023-04-20T11:43:03.669Z,7.37
2023-04-20T11:45:36.153Z,8.03
2023-04-20T11:48:07.935Z,7.47
2023-04-20T11:50:41.020Z,9.27
2023-04-20T11:53:14.790Z,7.70
2023-04-20T11:55:46.080Z,7.73
2023-04-20T11:58:17.323Z,7.53
2023-04-20T12:00:48.667Z,7.33
2023-04-20T12:03:20.118Z,9.90
2023-04-20T12:05:51.568Z,5.87
2023-04-20T12:08:24.587Z,6.73
2023-04-20T12:10:58.446Z,9.50
2023-04-20T12:13:29.987Z,7.63
2023-04-20T12:16:01.464Z,7.83
2023-04-20T12:18:32.794Z,10.17
2023-04-20T12:21:04.674Z,9.03
2023-04-20T12:23:36.930Z,7.97
2023-04-20T12:26:08.225Z,12.60
2023-04-20T12:28:39.480Z,11.20
2023-04-20T12:31:10.928Z,8.50
2023-04-20T12:33:43.359Z,7.93
2023-04-20T12:36:14.709Z,11.87
2023-04-20T12:38:45.971Z,8.67
2023-04-20T12:41:17.370Z,8.40
2023-04-20T12:43:51.575Z,11.00
2023-04-20T12:46:23.076Z,8.10
2023-04-20T12:48:54.393Z,8.93
2023-04-20T12:51:26.788Z,12.83
2023-04-20T12:53:58.069Z,8.90
2023-04-20T12:56:29.442Z,12.33
2023-04-20T12:59:00.769Z,7.97
2023-04-20T13:01:32.176Z,13.80
2023-04-20T13:04:03.670Z,11.47
2023-04-20T13:06:35.189Z,12.37
2023-04-20T13:09:06.889Z,9.13
2023-04-20T13:11:38.237Z,10.03
2023-04-20T13:14:09.494Z,10.13
2023-04-20T13:16:40.835Z,10.70
2023-04-20T13:19:12.334Z,9.27
2023-04-20T13:21:43.598Z,13.87
2023-04-20T13:24:14.864Z,8.07
2023-04-20T13:26:46.248Z,15.13
2023-04-20T13:29:17.807Z,14.20
2023-04-20T13:31:49.352Z,13.27
2023-04-20T13:34:20.877Z,16.50
2023-04-20T13:36:52.450Z,15.90
2023-04-20T13:39:24.017Z,14.60
2023-04-20T13:41:55.394Z,17.33
2023-04-20T13:44:26.716Z,13.90
2023-04-20T13:46:57.992Z,13.07
2023-04-20T13:49:29.399Z,13.90
2023-04-20T13:52:00.823Z,16.10
2023-04-20T13:54:32.096Z,12.97
2023-04-20T13:57:03.475Z,12.23
2023-04-20T13:59:34.957Z,10.60
2023-04-20T14:02:06.413Z,11.57
2023-04-20T14:04:37.727Z,14.20
2023-04-20T14:07:09.049Z,8.23
2023-04-20T14:09:44.066Z,14.03
2023-04-20T14:12:15.514Z,13.50
2023-04-20T14:14:46.851Z,13.40
2023-04-20T14:17:18.176Z,11.00
2023-04-20T14:19:49.607Z,14.23
2023-04-20T14:22:20.916Z,12.60
2023-04-20T14:24:52.374Z,13.73
2023-04-20T14:27:23.794Z,12.87
2023-04-20T14:29:55.044Z,14.97
2023-04-20T14:32:26.405Z,10.93
2023-04-20T14:34:57.739Z,12.43
2023-04-20T14:37:29.022Z,13.83
2023-04-20T14:40:00.304Z,10.87
2023-04-20T14:42:33.554Z,11.93
2023-04-20T14:45:05.447Z,10.83
2023-04-20T14:47:36.898Z,11.33
2023-04-20T14:50:09.261Z,10.43
2023-04-20T14:52:40.538Z,11.63
2023-04-20T14:55:11.815Z,10.23
2023-04-20T14:57:43.074Z,8.73
2023-04-20T15:00:14.930Z,10.23
2023-04-20T15:02:46.566Z,9.87
2023-04-20T15:05:18.174Z,10.17
2023-04-20T15:07:50.762Z,9.37
2023-04-20T15:10:22.172Z,9.93
2023-04-20T15:12:53.437Z,11.73
2023-04-20T15:15:29.826Z,10.63
2023-04-20T15:18:09.627Z,10.97
2023-04-20T15:20:40.923Z,10.23
2023-04-20T15:23:12.481Z,11.37
2023-04-20T15:25:43.983Z,11.27
2023-04-20T15:28:15.460Z,10.53
2023-04-20T15:30:46.917Z,13.87
2023-04-20T15:33:18.254Z,9.97
2023-04-20T15:35:50.322Z,12.13
2023-04-20T15:38:21.608Z,11.77
2023-04-20T15:40:53.801Z,10.90
2023-04-20T15:43:25.140Z,10.73
2023-04-20T15:45:56.489Z,13.00
2023-04-20T15:48:27.887Z,12.33
2023-04-20T15:50:59.227Z,13.13
2023-04-20T15:53:32.050Z,13.90
2023-04-20T15:56:03.387Z,13.23
2023-04-20T15:58:34.702Z,12.80
2023-04-20T16:01:06.067Z,16.10
2023-04-20T16:03:39.127Z,18.17
2023-04-20T16:06:10.721Z,15.27
2023-04-20T16:08:42.170Z,16.03
2023-04-20T16:11:13.438Z,19.27
2023-04-20T16:13:44.729Z,19.97
2023-04-20T16:16:16.149Z,17.37
2023-04-20T16:18:48.089Z,15.77
2023-04-20T16:21:19.478Z,16.47
2023-04-20T16:23:53.225Z,17.77
2023-04-20T16:26:26.021Z,17.40
2023-04-20T16:28:57.295Z,20.40
2023-04-20T16:31:29.542Z,14.77
2023-04-20T16:34:00.972Z,14.53
2023-04-20T16:36:32.925Z,20.07
2023-04-20T16:39:06.460Z,15.30
2023-04-20T16:41:37.757Z,16.90
2023-04-20T16:44:09.119Z,22.50
2023-04-20T16:46:41.745Z,20.10
2023-04-20T16:49:13.314Z,17.27
2023-04-20T16:51:44.780Z,22.20
2023-04-20T16:54:16.393Z,21.63
2023-04-20T16:56:47.868Z,16.20
2023-04-20T16:59:19.145Z,21.43
2023-04-20T17:01:50.504Z,35.63
2023-04-20T17:04:22.231Z,26.63
2023-04-20T17:06:53.855Z,21.20
2023-04-20T17:09:25.352Z,19.20
2023-04-20T17:11:59.186Z,21.40
2023-04-20T17:14:32.183Z,20.10
2023-04-20T17:17:03.923Z,18.87
2023-04-20T17:19:35.732Z,19.67
2023-04-20T17:22:08.072Z,15.07
2023-04-20T17:24:39.345Z,21.53
2023-04-20T17:27:10.622Z,23.30
2023-04-20T17:29:44.542Z,25.47
2023-04-20T17:32:16.024Z,22.77
2023-04-20T17:34:48.663Z,17.47
2023-04-20T17:37:20.566Z,24.13
2023-04-20T17:39:51.822Z,22.53
2023-04-20T17:42:23.204Z,18.63
2023-04-20T17:44:54.465Z,18.93
2023-04-20T17:47:25.906Z,22.03
2023-04-20T17:49:59.633Z,19.63
2023-04-20T17:52:30.989Z,15.60
2023-04-20T17:55:02.344Z,15.33
2023-04-20T17:57:33.620Z,15.37
2023-04-20T18:00:07.508Z,17.93
2023-04-20T18:02:39.686Z,15.43
2023-04-20T18:05:11.200Z,15.53
2023-04-20T18:07:42.771Z,16.63
2023-04-20T18:10:15.597Z,16.40
2023-04-20T18:12:46.888Z,13.13
2023-04-20T18:15:18.253Z,15.37
2023-04-20T18:17:49.574Z,16.53
2023-04-20T18:20:21.080Z,15.17
2023-04-20T18:22:52.388Z,15.53
2023-04-20T18:25:23.709Z,16.37
2023-04-20T18:27:55.205Z,21.37
2023-04-20T18:30:26.517Z,13.07
2023-04-20T18:32:58.011Z,17.83
2023-04-20T18:35:29.423Z,16.53
2023-04-20T18:38:01.046Z,15.20
2023-04-20T18:40:32.348Z,17.97
2023-04-20T18:43:03.728Z,15.97
2023-04-20T18:45:35.456Z,15.57
2023-04-20T18:48:06.793Z,15.47
2023-04-20T18:50:38.288Z,12.87
2023-04-20T18:53:09.576Z,16.20
2023-04-20T18:55:41.334Z,18.77
2023-04-20T18:58:12.684Z,15.90
2023-04-20T19:00:44.124Z,14.93
2023-04-20T19:03:15.703Z,15.27
2023-04-20T19:05:47.385Z,20.33
2023-04-20T19:08:18.710Z,17.77
2023-04-20T19:10:50.557Z,17.50
2023-04-20T19:13:22.245Z,15.67
2023-04-20T19:15:59.308Z,15.07
2023-04-20T19:18:30.682Z,17.57
2023-04-20T19:21:02.134Z,19.17
2023-04-20T19:23:35.679Z,18.73
2023-04-20T19:26:07.058Z,14.83
2023-04-20T19:28:38.846Z,15.97
2023-04-20T19:31:10.930Z,13.37
2023-04-20T19:33:42.331Z,16.53
2023-04-20T19:36:13.653Z,15.80
2023-04-20T19:38:45.627Z,18.67
2023-04-20T19:41:16.903Z,17.00
2023-04-20T19:43:48.151Z,18.13
2023-04-20T19:46:20.256Z,15.80
2023-04-20T19:48:51.628Z,15.60
2023-04-20T19:51:25.364Z,21.47
2023-04-20T19:53:58.566Z,15.27
2023-04-20T19:56:29.925Z,14.43
2023-04-20T19:59:01.300Z,19.90
2023-04-20T20:01:32.663Z,15.23
2023-04-20T20:04:04.239Z,16.60
2023-04-20T20:06:35.893Z,18.87
2023-04-20T20:09:07.310Z,16.80
2023-04-20T20:11:38.681Z,13.17
2023-04-20T20:14:09.998Z,13.10
2023-04-20T20:16:41.294Z,17.80
2023-04-20T20:19:12.655Z,13.37
2023-04-20T20:21:44.228Z,19.30
2023-04-20T20:24:16.040Z,20.20
2023-04-20T20:26:47.420Z,17.60
2023-04-20T20:29:18.954Z,17.37
2023-04-20T20:31:50.632Z,15.03
2023-04-20T20:34:21.941Z,18.60
2023-04-20T20:36:53.421Z,16.03
2023-04-20T20:39:25.034Z,18.97
2023-04-20T20:41:57.148Z,16.43
2023-04-20T20:44:32.621Z,14.70
2023-04-20T20:47:05.647Z,15.02
2023-04-20T20:49:37.134Z,15.70
2023-04-20T20:52:08.398Z,16.47
2023-04-20T20:54:39.681Z,17.47
2023-04-20T20:57:11.024Z,12.33
2023-04-20T20:59:42.570Z,14.57
2023-04-20T21:02:14.010Z,15.03
2023-04-20T21:04:45.495Z,21.30
2023-04-20T21:07:16.871Z,16.77
2023-04-20T21:09:48.312Z,14.03
2023-04-20T21:12:19.674Z,15.97
2023-04-20T21:14:52.136Z,10.60
2023-04-20T21:17:23.499Z,13.30
2023-04-20T21:19:54.972Z,13.70
2023-04-20T21:22:27.087Z,14.20
2023-04-20T21:24:58.443Z,14.23
2023-04-20T21:27:29.862Z,13.77
2023-04-20T21:30:01.139Z,14.10
2023-04-20T21:32:32.427Z,17.90
2023-04-20T21:35:04.331Z,18.87
2023-04-20T21:37:35.891Z,16.03
2023-04-20T21:40:08.116Z,16.87
2023-04-20T21:42:39.435Z,16.20
2023-04-20T21:45:11.348Z,17.17
2023-04-20T21:47:42.664Z,12.97
2023-04-20T21:50:13.989Z,14.87
2023-04-20T21:52:45.326Z,15.80
2023-04-20T21:55:16.716Z,13.70
2023-04-20T21:57:48.195Z,14.17
2023-04-20T22:00:19.662Z,15.27
2023-04-20T22:02:51.087Z,14.90
2023-04-20T22:05:22.500Z,18.53
2023-04-20T22:07:53.767Z,14.73
2023-04-20T22:10:26.436Z,18.17
2023-04-20T22:12:57.820Z,12.00
2023-04-20T22:15:29.112Z,13.07
2023-04-20T22:18:00.569Z,13.37
2023-04-20T22:20:32.179Z,15.37
2023-04-20T22:23:04.506Z,13.97
2023-04-20T22:25:35.811Z,16.33
2023-04-20T22:28:07.150Z,11.43
2023-04-20T22:30:38.428Z,16.53
2023-04-20T22:33:09.860Z,15.67
2023-04-20T22:35:41.167Z,14.97
2023-04-20T22:38:12.522Z,14.23
2023-04-20T22:40:43.816Z,13.03
2023-04-20T22:43:15.130Z,13.40
2023-04-20T22:45:46.415Z,13.47
2023-04-20T22:48:17.779Z,12.73
2023-04-20T22:50:49.047Z,17.07
2023-04-20T22:53:20.397Z,11.00
2023-04-20T22:55:51.654Z,15.37
2023-04-20T22:58:24.046Z,12.73
2023-04-20T23:00:55.436Z,11.73
2023-04-20T23:03:26.947Z,15.73
2023-04-20T23:05:58.972Z,13.53
2023-04-20T23:08:30.261Z,11.73
2023-04-20T23:11:01.594Z,13.53
2023-04-20T23:13:33.159Z,15.17
2023-04-20T23:16:04.692Z,14.03
2023-04-20T23:18:36.004Z,17.60
2023-04-20T23:21:07.352Z,11.20
2023-04-20T23:23:38.621Z,12.43
2023-04-20T23:26:09.875Z,15.50
2023-04-20T23:28:43.248Z,20.27
2023-04-20T23:31:14.525Z,14.57
2023-04-20T23:33:46.518Z,16.70
2023-04-20T23:36:17.804Z,13.90
2023-04-20T23:38:49.155Z,18.03
2023-04-20T23:41:20.504Z,12.53
2023-04-20T23:43:51.880Z,13.13
2023-04-20T23:46:23.839Z,12.97
2023-04-20T23:48:55.394Z,18.63
2023-04-20T23:51:27.567Z,13.73
2023-04-20T23:53:58.833Z,14.53
2023-04-20T23:56:30.124Z,12.80
2023-04-20T23:59:01.511Z,11.23
